sensor_id;sensor_type;location;lat;lon;timestamp;P1;durP1;ratioP1;P2;durP2;ratioP2
18669;SDS011;9464;44.918;9.670;2023-02-22T00:02:05;42.97;;;23.67;;
18669;SDS011;9464;44.918;9.670;2023-02-22T00:04:50;41.67;;;23.27;;
18669;SDS011;9464;44.918;9.670;2023-02-22T00:07:19;50.80;;;25.43;;
18669;SDS011;9464;44.918;9.670;2023-02-22T00:09:49;48.37;;;24.00;;
18669;SDS011;9464;44.918;9.670;2023-02-22T00:12:17;45.87;;;24.37;;
18669;SDS011;9464;44.918;9.670;2023-02-22T00:14:45;47.80;;;25.07;;
18669;SDS011;9464;44.918;9.670;2023-02-22T00:17:15;54.00;;;29.10;;
18669;SDS011;9464;44.918;9.670;2023-02-22T00:19:47;44.00;;;25.93;;
18669;SDS011;9464;44.918;9.670;2023-02-22T00:22:15;49.53;;;23.87;;
18669;SDS011;9464;44.918;9.670;2023-02-22T00:24:46;42.23;;;23.97;;
18669;SDS011;9464;44.918;9.670;2023-02-22T00:27:15;48.10;;;23.40;;
18669;SDS011;9464;44.918;9.670;2023-02-22T00:29:44;42.17;;;24.07;;
18669;SDS011;9464;44.918;9.670;2023-02-22T00:32:12;47.23;;;23.97;;
18669;SDS011;9464;44.918;9.670;2023-02-22T00:34:43;43.73;;;25.43;;
18669;SDS011;9464;44.918;9.670;2023-02-22T00:37:11;49.10;;;25.40;;
18669;SDS011;9464;44.918;9.670;2023-02-22T00:39:39;46.43;;;25.47;;
18669;SDS011;9464;44.918;9.670;2023-02-22T00:42:07;48.93;;;26.30;;
18669;SDS011;9464;44.918;9.670;2023-02-22T00:44:36;53.73;;;26.13;;
18669;SDS011;9464;44.918;9.670;2023-02-22T00:47:04;49.70;;;26.93;;
18669;SDS011;9464;44.918;9.670;2023-02-22T00:49:32;49.73;;;27.03;;
18669;SDS011;9464;44.918;9.670;2023-02-22T00:52:02;52.73;;;27.17;;
18669;SDS011;9464;44.918;9.670;2023-02-22T00:54:31;50.90;;;28.17;;
18669;SDS011;9464;44.918;9.670;2023-02-22T00:56:59;48.87;;;26.73;;
18669;SDS011;9464;44.918;9.670;2023-02-22T00:59:28;55.40;;;27.77;;
18669;SDS011;9464;44.918;9.670;2023-02-22T01:01:57;46.90;;;25.67;;
18669;SDS011;9464;44.918;9.670;2023-02-22T01:04:26;43.20;;;25.73;;
18669;SDS011;9464;44.918;9.670;2023-02-22T01:06:54;49.70;;;24.97;;
18669;SDS011;9464;44.918;9.670;2023-02-22T01:09:25;47.57;;;26.43;;
18669;SDS011;9464;44.918;9.670;2023-02-22T01:11:53;52.70;;;27.30;;
18669;SDS011;9464;44.918;9.670;2023-02-22T01:14:22;44.93;;;24.13;;
18669;SDS011;9464;44.918;9.670;2023-02-22T01:16:53;56.13;;;25.67;;
18669;SDS011;9464;44.918;9.670;2023-02-22T01:19:22;44.00;;;24.03;;
18669;SDS011;9464;44.918;9.670;2023-02-22T01:21:50;42.70;;;21.70;;
18669;SDS011;9464;44.918;9.670;2023-02-22T01:24:19;41.10;;;21.60;;
18669;SDS011;9464;44.918;9.670;2023-02-22T01:26:50;42.30;;;22.50;;
18669;SDS011;9464;44.918;9.670;2023-02-22T01:29:19;41.97;;;21.63;;
18669;SDS011;9464;44.918;9.670;2023-02-22T01:31:51;42.83;;;23.60;;
18669;SDS011;9464;44.918;9.670;2023-02-22T01:34:21;44.33;;;22.43;;
18669;SDS011;9464;44.918;9.670;2023-02-22T01:36:50;42.57;;;21.93;;
18669;SDS011;9464;44.918;9.670;2023-02-22T01:39:19;38.17;;;22.43;;
18669;SDS011;9464;44.918;9.670;2023-02-22T01:41:47;45.50;;;22.73;;
18669;SDS011;9464;44.918;9.670;2023-02-22T01:44:18;35.93;;;20.10;;
18669;SDS011;9464;44.918;9.670;2023-02-22T01:46:48;44.13;;;22.30;;
18669;SDS011;9464;44.918;9.670;2023-02-22T01:49:16;39.83;;;21.83;;
18669;SDS011;9464;44.918;9.670;2023-02-22T01:51:45;41.63;;;21.80;;
18669;SDS011;9464;44.918;9.670;2023-02-22T01:54:19;37.37;;;21.87;;
18669;SDS011;9464;44.918;9.670;2023-02-22T01:56:52;40.73;;;21.73;;
18669;SDS011;9464;44.918;9.670;2023-02-22T01:59:28;45.97;;;24.17;;
18669;SDS011;9464;44.918;9.670;2023-02-22T02:02:00;38.43;;;22.53;;
18669;SDS011;9464;44.918;9.670;2023-02-22T02:04:30;42.63;;;22.83;;
18669;SDS011;9464;44.918;9.670;2023-02-22T02:07:00;45.57;;;23.87;;
18669;SDS011;9464;44.918;9.670;2023-02-22T02:09:33;44.23;;;24.60;;
18669;SDS011;9464;44.918;9.670;2023-02-22T02:12:07;45.63;;;23.47;;
18669;SDS011;9464;44.918;9.670;2023-02-22T02:14:39;45.23;;;23.33;;
18669;SDS011;9464;44.918;9.670;2023-02-22T02:17:09;49.63;;;25.27;;
18669;SDS011;9464;44.918;9.670;2023-02-22T02:19:42;45.57;;;24.37;;
18669;SDS011;9464;44.918;9.670;2023-02-22T02:25:10;41.83;;;23.70;;
18669;SDS011;9464;44.918;9.670;2023-02-22T02:34:17;40.67;;;23.93;;
18669;SDS011;9464;44.918;9.670;2023-02-22T02:36:51;45.30;;;24.73;;
18669;SDS011;9464;44.918;9.670;2023-02-22T02:39:28;48.50;;;24.63;;
18669;SDS011;9464;44.918;9.670;2023-02-22T02:42:00;48.23;;;25.57;;
18669;SDS011;9464;44.918;9.670;2023-02-22T02:44:32;51.03;;;24.47;;
18669;SDS011;9464;44.918;9.670;2023-02-22T02:47:08;44.90;;;24.93;;
18669;SDS011;9464;44.918;9.670;2023-02-22T02:49:44;47.70;;;25.67;;
18669;SDS011;9464;44.918;9.670;2023-02-22T02:52:18;48.03;;;26.00;;
18669;SDS011;9464;44.918;9.670;2023-02-22T02:54:49;41.07;;;23.17;;
18669;SDS011;9464;44.918;9.670;2023-02-22T02:57:18;49.70;;;25.53;;
18669;SDS011;9464;44.918;9.670;2023-02-22T02:59:47;44.33;;;25.30;;
18669;SDS011;9464;44.918;9.670;2023-02-22T03:02:19;43.57;;;25.00;;
18669;SDS011;9464;44.918;9.670;2023-02-22T03:05:15;43.67;;;23.63;;
18669;SDS011;9464;44.918;9.670;2023-02-22T03:07:53;43.60;;;23.90;;
18669;SDS011;9464;44.918;9.670;2023-02-22T03:10:32;45.10;;;25.20;;
18669;SDS011;9464;44.918;9.670;2023-02-22T03:13:12;42.87;;;22.70;;
18669;SDS011;9464;44.918;9.670;2023-02-22T03:15:48;49.67;;;25.87;;
18669;SDS011;9464;44.918;9.670;2023-02-22T03:18:23;46.50;;;24.67;;
18669;SDS011;9464;44.918;9.670;2023-02-22T03:20:58;49.67;;;25.57;;
18669;SDS011;9464;44.918;9.670;2023-02-22T03:23:36;47.17;;;25.33;;
18669;SDS011;9464;44.918;9.670;2023-02-22T03:26:09;48.83;;;24.17;;
18669;SDS011;9464;44.918;9.670;2023-02-22T03:28:41;50.67;;;25.37;;
18669;SDS011;9464;44.918;9.670;2023-02-22T03:31:14;49.80;;;25.33;;
18669;SDS011;9464;44.918;9.670;2023-02-22T03:33:46;40.53;;;22.97;;
18669;SDS011;9464;44.918;9.670;2023-02-22T03:36:20;50.67;;;24.37;;
18669;SDS011;9464;44.918;9.670;2023-02-22T03:38:55;47.47;;;25.03;;
18669;SDS011;9464;44.918;9.670;2023-02-22T03:41:26;47.10;;;24.83;;
18669;SDS011;9464;44.918;9.670;2023-02-22T03:43:57;51.20;;;26.00;;
18669;SDS011;9464;44.918;9.670;2023-02-22T03:46:29;45.30;;;23.87;;
18669;SDS011;9464;44.918;9.670;2023-02-22T03:48:59;44.00;;;25.73;;
18669;SDS011;9464;44.918;9.670;2023-02-22T03:51:35;44.40;;;24.50;;
18669;SDS011;9464;44.918;9.670;2023-02-22T03:54:05;48.20;;;25.73;;
18669;SDS011;9464;44.918;9.670;2023-02-22T03:56:36;48.27;;;23.90;;
18669;SDS011;9464;44.918;9.670;2023-02-22T03:59:12;57.00;;;25.37;;
18669;SDS011;9464;44.918;9.670;2023-02-22T04:01:41;47.07;;;25.10;;
18669;SDS011;9464;44.918;9.670;2023-02-22T04:04:09;50.90;;;24.97;;
18669;SDS011;9464;44.918;9.670;2023-02-22T04:06:39;41.97;;;24.80;;
18669;SDS011;9464;44.918;9.670;2023-02-22T04:09:07;50.47;;;24.37;;
18669;SDS011;9464;44.918;9.670;2023-02-22T04:11:35;42.90;;;22.97;;
18669;SDS011;9464;44.918;9.670;2023-02-22T04:14:04;51.87;;;24.63;;
18669;SDS011;9464;44.918;9.670;2023-02-22T04:16:32;41.77;;;23.23;;
18669;SDS011;9464;44.918;9.670;2023-02-22T04:19:00;44.43;;;24.43;;
18669;SDS011;9464;44.918;9.670;2023-02-22T04:21:29;47.60;;;24.77;;
18669;SDS011;9464;44.918;9.670;2023-02-22T04:23:58;46.93;;;24.10;;
18669;SDS011;9464;44.918;9.670;2023-02-22T04:26:26;41.23;;;23.33;;
18669;SDS011;9464;44.918;9.670;2023-02-22T04:28:55;44.30;;;24.00;;
18669;SDS011;9464;44.918;9.670;2023-02-22T04:31:23;49.10;;;23.80;;
18669;SDS011;9464;44.918;9.670;2023-02-22T04:33:51;48.30;;;24.77;;
18669;SDS011;9464;44.918;9.670;2023-02-22T04:36:19;49.90;;;25.40;;
18669;SDS011;9464;44.918;9.670;2023-02-22T04:38:48;45.53;;;22.93;;
18669;SDS011;9464;44.918;9.670;2023-02-22T04:41:18;43.73;;;23.40;;
18669;SDS011;9464;44.918;9.670;2023-02-22T04:43:49;45.57;;;24.27;;
18669;SDS011;9464;44.918;9.670;2023-02-22T04:46:17;54.33;;;24.83;;
18669;SDS011;9464;44.918;9.670;2023-02-22T04:48:46;47.47;;;25.83;;
18669;SDS011;9464;44.918;9.670;2023-02-22T04:51:14;48.03;;;24.60;;
18669;SDS011;9464;44.918;9.670;2023-02-22T04:53:43;46.77;;;25.67;;
18669;SDS011;9464;44.918;9.670;2023-02-22T04:56:11;46.10;;;23.97;;
18669;SDS011;9464;44.918;9.670;2023-02-22T04:58:41;45.93;;;24.40;;
18669;SDS011;9464;44.918;9.670;2023-02-22T05:01:09;38.43;;;22.10;;
18669;SDS011;9464;44.918;9.670;2023-02-22T05:03:37;38.90;;;21.03;;
18669;SDS011;9464;44.918;9.670;2023-02-22T05:06:06;38.50;;;19.47;;
18669;SDS011;9464;44.918;9.670;2023-02-22T05:08:34;38.47;;;19.00;;
18669;SDS011;9464;44.918;9.670;2023-02-22T05:11:03;35.20;;;18.37;;
18669;SDS011;9464;44.918;9.670;2023-02-22T05:13:31;26.93;;;15.77;;
18669;SDS011;9464;44.918;9.670;2023-02-22T05:16:01;29.17;;;16.07;;
18669;SDS011;9464;44.918;9.670;2023-02-22T05:18:30;35.03;;;19.07;;
18669;SDS011;9464;44.918;9.670;2023-02-22T05:20:58;35.77;;;18.17;;
18669;SDS011;9464;44.918;9.670;2023-02-22T05:23:26;34.73;;;19.10;;
18669;SDS011;9464;44.918;9.670;2023-02-22T05:25:54;29.20;;;17.40;;
18669;SDS011;9464;44.918;9.670;2023-02-22T05:28:23;31.90;;;16.90;;
18669;SDS011;9464;44.918;9.670;2023-02-22T05:30:52;27.83;;;15.90;;
18669;SDS011;9464;44.918;9.670;2023-02-22T05:35:51;26.60;;;16.10;;
18669;SDS011;9464;44.918;9.670;2023-02-22T05:38:21;30.40;;;16.10;;
18669;SDS011;9464;44.918;9.670;2023-02-22T05:40:49;32.73;;;17.93;;
18669;SDS011;9464;44.918;9.670;2023-02-22T05:43:17;29.37;;;16.10;;
18669;SDS011;9464;44.918;9.670;2023-02-22T05:45:46;33.00;;;16.20;;
18669;SDS011;9464;44.918;9.670;2023-02-22T05:48:14;30.97;;;16.23;;
18669;SDS011;9464;44.918;9.670;2023-02-22T05:50:44;28.40;;;16.07;;
18669;SDS011;9464;44.918;9.670;2023-02-22T05:53:12;31.50;;;16.87;;
18669;SDS011;9464;44.918;9.670;2023-02-22T05:55:40;31.00;;;17.10;;
18669;SDS011;9464;44.918;9.670;2023-02-22T05:58:11;35.23;;;17.60;;
18669;SDS011;9464;44.918;9.670;2023-02-22T06:00:40;35.80;;;18.00;;
18669;SDS011;9464;44.918;9.670;2023-02-22T06:03:09;32.37;;;16.63;;
18669;SDS011;9464;44.918;9.670;2023-02-22T06:05:38;32.07;;;17.23;;
18669;SDS011;9464;44.918;9.670;2023-02-22T06:08:09;33.17;;;17.00;;
18669;SDS011;9464;44.918;9.670;2023-02-22T06:10:38;32.03;;;17.43;;
18669;SDS011;9464;44.918;9.670;2023-02-22T06:13:06;39.70;;;20.70;;
18669;SDS011;9464;44.918;9.670;2023-02-22T06:15:34;38.47;;;20.20;;
18669;SDS011;9464;44.918;9.670;2023-02-22T06:18:02;40.13;;;18.83;;
18669;SDS011;9464;44.918;9.670;2023-02-22T06:20:31;33.73;;;16.83;;
18669;SDS011;9464;44.918;9.670;2023-02-22T06:23:00;29.27;;;15.80;;
18669;SDS011;9464;44.918;9.670;2023-02-22T06:25:30;30.40;;;14.87;;
18669;SDS011;9464;44.918;9.670;2023-02-22T06:27:59;25.17;;;14.43;;
18669;SDS011;9464;44.918;9.670;2023-02-22T06:30:28;31.57;;;15.30;;
18669;SDS011;9464;44.918;9.670;2023-02-22T06:32:57;24.17;;;13.73;;
18669;SDS011;9464;44.918;9.670;2023-02-22T06:35:25;30.17;;;15.00;;
18669;SDS011;9464;44.918;9.670;2023-02-22T06:37:53;25.23;;;14.60;;
18669;SDS011;9464;44.918;9.670;2023-02-22T06:40:21;29.07;;;15.07;;
18669;SDS011;9464;44.918;9.670;2023-02-22T06:42:56;26.60;;;15.80;;
18669;SDS011;9464;44.918;9.670;2023-02-22T06:45:25;42.73;;;18.50;;
18669;SDS011;9464;44.918;9.670;2023-02-22T06:47:53;35.87;;;17.70;;
18669;SDS011;9464;44.918;9.670;2023-02-22T06:50:23;24.07;;;13.23;;
18669;SDS011;9464;44.918;9.670;2023-02-22T06:52:54;29.20;;;13.27;;
18669;SDS011;9464;44.918;9.670;2023-02-22T06:55:23;24.63;;;13.17;;
18669;SDS011;9464;44.918;9.670;2023-02-22T06:57:52;26.37;;;13.53;;
18669;SDS011;9464;44.918;9.670;2023-02-22T07:00:23;26.40;;;13.00;;
18669;SDS011;9464;44.918;9.670;2023-02-22T07:02:53;29.33;;;14.53;;
18669;SDS011;9464;44.918;9.670;2023-02-22T07:05:22;25.90;;;13.07;;
18669;SDS011;9464;44.918;9.670;2023-02-22T07:07:51;23.23;;;13.37;;
18669;SDS011;9464;44.918;9.670;2023-02-22T07:10:22;24.97;;;12.77;;
18669;SDS011;9464;44.918;9.670;2023-02-22T07:12:53;26.97;;;12.33;;
18669;SDS011;9464;44.918;9.670;2023-02-22T07:15:23;25.47;;;12.73;;
18669;SDS011;9464;44.918;9.670;2023-02-22T07:17:54;25.60;;;11.80;;
18669;SDS011;9464;44.918;9.670;2023-02-22T07:20:23;22.57;;;12.07;;
18669;SDS011;9464;44.918;9.670;2023-02-22T07:22:53;23.77;;;11.50;;
18669;SDS011;9464;44.918;9.670;2023-02-22T07:25:22;22.63;;;12.23;;
18669;SDS011;9464;44.918;9.670;2023-02-22T07:27:51;24.87;;;12.03;;
18669;SDS011;9464;44.918;9.670;2023-02-22T07:30:20;22.03;;;11.57;;
18669;SDS011;9464;44.918;9.670;2023-02-22T07:32:51;19.60;;;10.80;;
18669;SDS011;9464;44.918;9.670;2023-02-22T07:35:22;17.00;;;10.13;;
18669;SDS011;9464;44.918;9.670;2023-02-22T07:37:51;20.40;;;9.80;;
18669;SDS011;9464;44.918;9.670;2023-02-22T07:40:21;20.43;;;10.60;;
18669;SDS011;9464;44.918;9.670;2023-02-22T07:42:54;16.17;;;9.67;;
18669;SDS011;9464;44.918;9.670;2023-02-22T07:45:26;18.90;;;9.23;;
18669;SDS011;9464;44.918;9.670;2023-02-22T07:47:56;15.77;;;7.83;;
18669;SDS011;9464;44.918;9.670;2023-02-22T07:50:25;13.50;;;8.00;;
18669;SDS011;9464;44.918;9.670;2023-02-22T07:52:57;19.30;;;8.60;;
18669;SDS011;9464;44.918;9.670;2023-02-22T07:55:26;15.43;;;8.20;;
18669;SDS011;9464;44.918;9.670;2023-02-22T07:57:56;17.70;;;8.47;;
18669;SDS011;9464;44.918;9.670;2023-02-22T08:00:28;17.07;;;8.67;;
18669;SDS011;9464;44.918;9.670;2023-02-22T08:02:58;18.60;;;9.37;;
18669;SDS011;9464;44.918;9.670;2023-02-22T08:05:28;18.53;;;9.03;;
18669;SDS011;9464;44.918;9.670;2023-02-22T08:07:57;18.53;;;9.80;;
18669;SDS011;9464;44.918;9.670;2023-02-22T08:10:25;18.60;;;8.87;;
18669;SDS011;9464;44.918;9.670;2023-02-22T08:12:54;21.03;;;9.03;;
18669;SDS011;9464;44.918;9.670;2023-02-22T08:15:24;15.83;;;9.17;;
18669;SDS011;9464;44.918;9.670;2023-02-22T08:17:56;22.77;;;9.00;;
18669;SDS011;9464;44.918;9.670;2023-02-22T08:20:25;16.23;;;9.43;;
18669;SDS011;9464;44.918;9.670;2023-02-22T08:22:54;14.70;;;9.47;;
18669;SDS011;9464;44.918;9.670;2023-02-22T08:25:24;14.90;;;9.40;;
18669;SDS011;9464;44.918;9.670;2023-02-22T08:27:55;14.13;;;10.10;;
18669;SDS011;9464;44.918;9.670;2023-02-22T08:30:27;35.47;;;19.23;;
18669;SDS011;9464;44.918;9.670;2023-02-22T08:32:57;20.37;;;11.83;;
18669;SDS011;9464;44.918;9.670;2023-02-22T08:35:28;22.63;;;11.07;;
18669;SDS011;9464;44.918;9.670;2023-02-22T08:37:58;17.03;;;9.63;;
18669;SDS011;9464;44.918;9.670;2023-02-22T08:40:27;20.40;;;10.43;;
18669;SDS011;9464;44.918;9.670;2023-02-22T08:42:57;17.03;;;10.00;;
18669;SDS011;9464;44.918;9.670;2023-02-22T08:45:27;19.37;;;10.77;;
18669;SDS011;9464;44.918;9.670;2023-02-22T08:47:56;20.23;;;11.37;;
18669;SDS011;9464;44.918;9.670;2023-02-22T08:50:26;21.80;;;12.37;;
18669;SDS011;9464;44.918;9.670;2023-02-22T08:52:56;25.23;;;12.83;;
18669;SDS011;9464;44.918;9.670;2023-02-22T08:55:27;28.03;;;13.00;;
18669;SDS011;9464;44.918;9.670;2023-02-22T08:57:57;23.10;;;13.47;;
18669;SDS011;9464;44.918;9.670;2023-02-22T09:00:28;29.03;;;14.37;;
18669;SDS011;9464;44.918;9.670;2023-02-22T09:03:00;30.07;;;13.30;;
18669;SDS011;9464;44.918;9.670;2023-02-22T09:05:30;24.30;;;13.83;;
18669;SDS011;9464;44.918;9.670;2023-02-22T09:07:58;45.53;;;21.07;;
18669;SDS011;9464;44.918;9.670;2023-02-22T09:10:28;31.23;;;16.40;;
18669;SDS011;9464;44.918;9.670;2023-02-22T09:12:59;74.70;;;37.90;;
18669;SDS011;9464;44.918;9.670;2023-02-22T09:15:29;29.17;;;13.23;;
18669;SDS011;9464;44.918;9.670;2023-02-22T09:17:58;24.63;;;12.33;;
18669;SDS011;9464;44.918;9.670;2023-02-22T09:20:29;79.97;;;41.87;;
18669;SDS011;9464;44.918;9.670;2023-02-22T09:22:57;51.50;;;25.97;;
18669;SDS011;9464;44.918;9.670;2023-02-22T09:25:28;18.77;;;11.87;;
18669;SDS011;9464;44.918;9.670;2023-02-22T09:27:56;28.67;;;17.50;;
18669;SDS011;9464;44.918;9.670;2023-02-22T09:30:25;19.17;;;10.10;;
18669;SDS011;9464;44.918;9.670;2023-02-22T09:32:58;23.70;;;12.23;;
18669;SDS011;9464;44.918;9.670;2023-02-22T09:35:29;95.27;;;44.43;;
18669;SDS011;9464;44.918;9.670;2023-02-22T09:38:02;63.93;;;27.83;;
18669;SDS011;9464;44.918;9.670;2023-02-22T09:40:32;80.43;;;36.23;;
18669;SDS011;9464;44.918;9.670;2023-02-22T09:43:08;53.93;;;28.97;;
18669;SDS011;9464;44.918;9.670;2023-02-22T09:45:50;27.70;;;16.30;;
18669;SDS011;9464;44.918;9.670;2023-02-22T09:48:32;38.53;;;17.20;;
18669;SDS011;9464;44.918;9.670;2023-02-22T09:51:07;34.87;;;18.73;;
18669;SDS011;9464;44.918;9.670;2023-02-22T09:53:44;33.07;;;15.57;;
18669;SDS011;9464;44.918;9.670;2023-02-22T09:56:15;27.10;;;15.10;;
18669;SDS011;9464;44.918;9.670;2023-02-22T09:58:46;21.57;;;12.67;;
18669;SDS011;9464;44.918;9.670;2023-02-22T10:01:19;30.43;;;12.63;;
18669;SDS011;9464;44.918;9.670;2023-02-22T10:03:57;21.67;;;12.43;;
18669;SDS011;9464;44.918;9.670;2023-02-22T10:06:30;25.57;;;14.43;;
18669;SDS011;9464;44.918;9.670;2023-02-22T10:09:00;47.77;;;23.33;;
18669;SDS011;9464;44.918;9.670;2023-02-22T10:11:42;31.97;;;18.23;;
18669;SDS011;9464;44.918;9.670;2023-02-22T10:17:10;36.63;;;17.80;;
18669;SDS011;9464;44.918;9.670;2023-02-22T10:19:48;32.13;;;17.00;;
18669;SDS011;9464;44.918;9.670;2023-02-22T10:22:30;35.63;;;18.63;;
18669;SDS011;9464;44.918;9.670;2023-02-22T10:25:09;35.17;;;19.70;;
18669;SDS011;9464;44.918;9.670;2023-02-22T10:27:40;34.53;;;20.10;;
18669;SDS011;9464;44.918;9.670;2023-02-22T10:30:14;47.20;;;23.20;;
18669;SDS011;9464;44.918;9.670;2023-02-22T10:32:54;51.90;;;25.47;;
18669;SDS011;9464;44.918;9.670;2023-02-22T10:35:31;39.00;;;22.33;;
18669;SDS011;9464;44.918;9.670;2023-02-22T10:38:05;43.87;;;22.50;;
18669;SDS011;9464;44.918;9.670;2023-02-22T10:40:40;45.40;;;22.53;;
18669;SDS011;9464;44.918;9.670;2023-02-22T10:43:11;48.77;;;25.03;;
18669;SDS011;9464;44.918;9.670;2023-02-22T10:45:40;45.37;;;24.43;;
18669;SDS011;9464;44.918;9.670;2023-02-22T10:48:10;44.30;;;23.93;;
18669;SDS011;9464;44.918;9.670;2023-02-22T10:50:45;47.30;;;25.43;;
18669;SDS011;9464;44.918;9.670;2023-02-22T10:53:15;50.93;;;25.90;;
18669;SDS011;9464;44.918;9.670;2023-02-22T10:58:41;52.00;;;28.27;;
18669;SDS011;9464;44.918;9.670;2023-02-22T11:01:19;42.37;;;24.93;;
18669;SDS011;9464;44.918;9.670;2023-02-22T11:03:55;46.63;;;25.63;;
18669;SDS011;9464;44.918;9.670;2023-02-22T11:06:26;48.43;;;25.70;;
18669;SDS011;9464;44.918;9.670;2023-02-22T11:09:05;45.13;;;24.80;;
18669;SDS011;9464;44.918;9.670;2023-02-22T11:11:37;49.37;;;25.83;;
18669;SDS011;9464;44.918;9.670;2023-02-22T11:14:07;48.50;;;26.90;;
18669;SDS011;9464;44.918;9.670;2023-02-22T11:16:38;47.37;;;24.20;;
18669;SDS011;9464;44.918;9.670;2023-02-22T11:19:15;40.10;;;22.50;;
18669;SDS011;9464;44.918;9.670;2023-02-22T11:21:47;37.07;;;21.33;;
18669;SDS011;9464;44.918;9.670;2023-02-22T11:24:18;42.73;;;22.33;;
18669;SDS011;9464;44.918;9.670;2023-02-22T11:26:51;46.80;;;23.83;;
18669;SDS011;9464;44.918;9.670;2023-02-22T11:29:24;45.57;;;22.83;;
18669;SDS011;9464;44.918;9.670;2023-02-22T11:31:54;44.33;;;23.30;;
18669;SDS011;9464;44.918;9.670;2023-02-22T11:34:30;42.13;;;22.43;;
18669;SDS011;9464;44.918;9.670;2023-02-22T11:37:18;44.03;;;23.60;;
18669;SDS011;9464;44.918;9.670;2023-02-22T11:40:05;49.40;;;25.13;;
18669;SDS011;9464;44.918;9.670;2023-02-22T11:42:39;49.13;;;26.27;;
18669;SDS011;9464;44.918;9.670;2023-02-22T11:45:08;50.50;;;27.27;;
18669;SDS011;9464;44.918;9.670;2023-02-22T11:47:49;44.03;;;24.60;;
18669;SDS011;9464;44.918;9.670;2023-02-22T11:50:26;52.20;;;26.97;;
18669;SDS011;9464;44.918;9.670;2023-02-22T11:53:11;48.57;;;27.27;;
18669;SDS011;9464;44.918;9.670;2023-02-22T11:55:52;43.03;;;23.00;;
18669;SDS011;9464;44.918;9.670;2023-02-22T11:58:35;49.57;;;25.43;;
18669;SDS011;9464;44.918;9.670;2023-02-22T12:01:13;53.43;;;26.67;;
18669;SDS011;9464;44.918;9.670;2023-02-22T12:04:05;48.13;;;26.43;;
18669;SDS011;9464;44.918;9.670;2023-02-22T12:06:52;53.83;;;30.00;;
18669;SDS011;9464;44.918;9.670;2023-02-22T12:09:33;64.83;;;30.83;;
18669;SDS011;9464;44.918;9.670;2023-02-22T12:12:09;63.57;;;32.90;;
18669;SDS011;9464;44.918;9.670;2023-02-22T12:14:46;67.03;;;35.00;;
18669;SDS011;9464;44.918;9.670;2023-02-22T12:17:24;63.07;;;32.53;;
18669;SDS011;9464;44.918;9.670;2023-02-22T12:20:02;58.27;;;26.47;;
18669;SDS011;9464;44.918;9.670;2023-02-22T12:22:38;122.87;;;58.83;;
18669;SDS011;9464;44.918;9.670;2023-02-22T12:25:17;74.47;;;35.87;;
18669;SDS011;9464;44.918;9.670;2023-02-22T12:27:50;61.90;;;33.07;;
18669;SDS011;9464;44.918;9.670;2023-02-22T12:30:22;61.33;;;30.13;;
18669;SDS011;9464;44.918;9.670;2023-02-22T12:32:55;56.23;;;29.80;;
18669;SDS011;9464;44.918;9.670;2023-02-22T12:35:27;71.27;;;33.60;;
18669;SDS011;9464;44.918;9.670;2023-02-22T12:38:02;73.33;;;35.60;;
18669;SDS011;9464;44.918;9.670;2023-02-22T12:40:40;66.57;;;34.50;;
18669;SDS011;9464;44.918;9.670;2023-02-22T12:43:21;65.13;;;33.33;;
18669;SDS011;9464;44.918;9.670;2023-02-22T12:45:56;62.00;;;33.67;;
18669;SDS011;9464;44.918;9.670;2023-02-22T12:48:34;63.13;;;31.40;;
18669;SDS011;9464;44.918;9.670;2023-02-22T12:51:14;58.93;;;32.37;;
18669;SDS011;9464;44.918;9.670;2023-02-22T12:53:52;61.77;;;31.57;;
18669;SDS011;9464;44.918;9.670;2023-02-22T12:56:29;69.17;;;33.83;;
18669;SDS011;9464;44.918;9.670;2023-02-22T12:59:02;78.40;;;35.83;;
18669;SDS011;9464;44.918;9.670;2023-02-22T13:01:39;62.77;;;31.10;;
18669;SDS011;9464;44.918;9.670;2023-02-22T13:04:10;72.17;;;32.30;;
18669;SDS011;9464;44.918;9.670;2023-02-22T13:06:58;64.40;;;34.63;;
18669;SDS011;9464;44.918;9.670;2023-02-22T13:09:40;68.07;;;33.43;;
18669;SDS011;9464;44.918;9.670;2023-02-22T13:12:29;74.60;;;34.97;;
18669;SDS011;9464;44.918;9.670;2023-02-22T13:15:05;64.47;;;33.67;;
18669;SDS011;9464;44.918;9.670;2023-02-22T13:17:41;68.23;;;36.03;;
18669;SDS011;9464;44.918;9.670;2023-02-22T13:20:18;71.30;;;35.07;;
18669;SDS011;9464;44.918;9.670;2023-02-22T13:22:51;68.30;;;34.90;;
18669;SDS011;9464;44.918;9.670;2023-02-22T13:25:27;115.73;;;54.80;;
18669;SDS011;9464;44.918;9.670;2023-02-22T13:28:09;68.53;;;35.73;;
18669;SDS011;9464;44.918;9.670;2023-02-22T13:30:49;70.70;;;35.23;;
18669;SDS011;9464;44.918;9.670;2023-02-22T13:33:31;70.77;;;36.20;;
18669;SDS011;9464;44.918;9.670;2023-02-22T13:36:18;77.20;;;36.20;;
18669;SDS011;9464;44.918;9.670;2023-02-22T13:41:56;62.30;;;33.27;;
18669;SDS011;9464;44.918;9.670;2023-02-22T13:44:59;71.97;;;35.10;;
18669;SDS011;9464;44.918;9.670;2023-02-22T13:50:51;73.57;;;35.07;;
18669;SDS011;9464;44.918;9.670;2023-02-22T13:53:34;69.27;;;33.80;;
18669;SDS011;9464;44.918;9.670;2023-02-22T13:56:09;68.10;;;35.00;;
18669;SDS011;9464;44.918;9.670;2023-02-22T13:58:47;67.00;;;34.30;;
18669;SDS011;9464;44.918;9.670;2023-02-22T14:04:31;60.97;;;30.40;;
18669;SDS011;9464;44.918;9.670;2023-02-22T14:10:38;76.43;;;36.37;;
18669;SDS011;9464;44.918;9.670;2023-02-22T14:13:14;68.67;;;35.03;;
18669;SDS011;9464;44.918;9.670;2023-02-22T14:18:47;66.60;;;33.83;;
18669;SDS011;9464;44.918;9.670;2023-02-22T14:21:26;70.90;;;35.70;;
18669;SDS011;9464;44.918;9.670;2023-02-22T14:23:55;75.67;;;37.80;;
18669;SDS011;9464;44.918;9.670;2023-02-22T14:26:32;80.13;;;40.27;;
18669;SDS011;9464;44.918;9.670;2023-02-22T14:29:13;79.90;;;40.90;;
18669;SDS011;9464;44.918;9.670;2023-02-22T14:31:55;89.77;;;41.97;;
18669;SDS011;9464;44.918;9.670;2023-02-22T14:34:42;86.20;;;42.57;;
18669;SDS011;9464;44.918;9.670;2023-02-22T14:37:15;85.10;;;41.63;;
18669;SDS011;9464;44.918;9.670;2023-02-22T14:39:45;169.73;;;67.07;;
18669;SDS011;9464;44.918;9.670;2023-02-22T14:42:17;95.03;;;45.03;;
18669;SDS011;9464;44.918;9.670;2023-02-22T14:44:53;88.13;;;43.23;;
18669;SDS011;9464;44.918;9.670;2023-02-22T14:47:27;84.80;;;41.57;;
18669;SDS011;9464;44.918;9.670;2023-02-22T14:50:01;87.37;;;43.50;;
18669;SDS011;9464;44.918;9.670;2023-02-22T14:52:34;95.37;;;45.70;;
18669;SDS011;9464;44.918;9.670;2023-02-22T14:55:06;112.03;;;53.33;;
18669;SDS011;9464;44.918;9.670;2023-02-22T14:57:53;82.73;;;41.17;;
18669;SDS011;9464;44.918;9.670;2023-02-22T15:00:28;98.57;;;48.33;;
18669;SDS011;9464;44.918;9.670;2023-02-22T15:03:10;98.20;;;46.10;;
18669;SDS011;9464;44.918;9.670;2023-02-22T15:05:47;102.60;;;46.83;;
18669;SDS011;9464;44.918;9.670;2023-02-22T15:08:16;163.07;;;78.73;;
18669;SDS011;9464;44.918;9.670;2023-02-22T15:10:53;98.53;;;47.43;;
18669;SDS011;9464;44.918;9.670;2023-02-22T15:13:22;83.03;;;42.57;;
18669;SDS011;9464;44.918;9.670;2023-02-22T15:15:54;95.27;;;44.57;;
18669;SDS011;9464;44.918;9.670;2023-02-22T15:18:27;94.70;;;43.00;;
18669;SDS011;9464;44.918;9.670;2023-02-22T15:21:03;96.87;;;44.30;;
18669;SDS011;9464;44.918;9.670;2023-02-22T15:23:40;89.70;;;44.13;;
18669;SDS011;9464;44.918;9.670;2023-02-22T15:26:18;90.33;;;43.83;;
18669;SDS011;9464;44.918;9.670;2023-02-22T15:28:52;83.87;;;42.53;;
18669;SDS011;9464;44.918;9.670;2023-02-22T15:31:23;97.93;;;44.77;;
18669;SDS011;9464;44.918;9.670;2023-02-22T15:33:53;94.03;;;46.27;;
18669;SDS011;9464;44.918;9.670;2023-02-22T15:36:25;102.50;;;44.83;;
18669;SDS011;9464;44.918;9.670;2023-02-22T15:38:56;97.90;;;44.80;;
18669;SDS011;9464;44.918;9.670;2023-02-22T15:41:26;104.80;;;46.87;;